sensor_id;sensor_type;location;lat;lon;timestamp;pressure;altitude;pressure_sealevel;temperature;humidity
11345;BME280;5727;42.600;23.028;2023-02-12T00:00:05;94634.59;;;-2.23;82.67
11345;BME280;5727;42.600;23.028;2023-02-12T00:02:33;94643.75;;;-2.16;82.15
11345;BME280;5727;42.600;23.028;2023-02-12T00:04:59;94648.88;;;-2.16;82.63
11345;BME280;5727;42.600;23.028;2023-02-12T00:07:28;94650.31;;;-2.20;82.44
11345;BME280;5727;42.600;23.028;2023-02-12T00:09:56;94646.31;;;-2.27;82.23
11345;BME280;5727;42.600;23.028;2023-02-12T00:12:23;94644.16;;;-2.30;81.83
11345;BME280;5727;42.600;23.028;2023-02-12T00:14:50;94651.31;;;-2.32;81.73
11345;BME280;5727;42.600;23.028;2023-02-12T00:17:16;94648.53;;;-2.31;81.99
11345;BME280;5727;42.600;23.028;2023-02-12T00:19:43;94635.47;;;-2.29;82.21
11345;BME280;5727;42.600;23.028;2023-02-12T00:22:10;94632.47;;;-2.26;81.84
11345;BME280;5727;42.600;23.028;2023-02-12T00:24:36;94628.69;;;-2.24;82.12
11345;BME280;5727;42.600;23.028;2023-02-12T00:27:04;94639.72;;;-2.23;81.97
11345;BME280;5727;42.600;23.028;2023-02-12T00:29:31;94633.47;;;-2.27;82.45
11345;BME280;5727;42.600;23.028;2023-02-12T00:31:58;94636.69;;;-2.32;82.85
11345;BME280;5727;42.600;23.028;2023-02-12T00:34:24;94630.69;;;-2.37;83.88
11345;BME280;5727;42.600;23.028;2023-02-12T00:36:51;94628.13;;;-2.37;84.20
11345;BME280;5727;42.600;23.028;2023-02-12T00:39:18;94625.44;;;-2.31;83.76
11345;BME280;5727;42.600;23.028;2023-02-12T00:41:45;94606.47;;;-2.30;83.85
11345;BME280;5727;42.600;23.028;2023-02-12T00:44:13;94610.72;;;-2.24;84.22
11345;BME280;5727;42.600;23.028;2023-02-12T00:46:39;94603.91;;;-2.30;84.42
11345;BME280;5727;42.600;23.028;2023-02-12T00:49:06;94601.78;;;-2.33;84.27
11345;BME280;5727;42.600;23.028;2023-02-12T00:51:33;94597.22;;;-2.31;84.55
11345;BME280;5727;42.600;23.028;2023-02-12T00:53:59;94597.22;;;-2.31;84.58
11345;BME280;5727;42.600;23.028;2023-02-12T00:56:26;94586.97;;;-2.31;84.21
11345;BME280;5727;42.600;23.028;2023-02-12T00:58:53;94596.75;;;-2.28;84.56
11345;BME280;5727;42.600;23.028;2023-02-12T01:01:21;94594.09;;;-2.33;84.39
11345;BME280;5727;42.600;23.028;2023-02-12T01:03:47;94587.94;;;-2.32;84.30
11345;BME280;5727;42.600;23.028;2023-02-12T01:06:14;94593.06;;;-2.32;84.54
11345;BME280;5727;42.600;23.028;2023-02-12T01:08:41;94586.16;;;-2.31;84.18
11345;BME280;5727;42.600;23.028;2023-02-12T01:11:12;94582.38;;;-2.29;84.28
11345;BME280;5727;42.600;23.028;2023-02-12T01:13:38;94598.78;;;-2.30;83.72
11345;BME280;5727;42.600;23.028;2023-02-12T01:16:07;94597.78;;;-2.40;84.18
11345;BME280;5727;42.600;23.028;2023-02-12T01:18:38;94595.41;;;-2.42;84.48
11345;BME280;5727;42.600;23.028;2023-02-12T01:21:09;94599.22;;;-2.33;84.04
11345;BME280;5727;42.600;23.028;2023-02-12T01:23:36;94583.38;;;-2.30;83.09
11345;BME280;5727;42.600;23.028;2023-02-12T01:26:03;94583.69;;;-2.26;83.54
11345;BME280;5727;42.600;23.028;2023-02-12T01:28:31;94580.00;;;-2.30;83.77
11345;BME280;5727;42.600;23.028;2023-02-12T01:30:58;94587.06;;;-2.26;84.11
11345;BME280;5727;42.600;23.028;2023-02-12T01:33:25;94586.03;;;-2.25;84.12
11345;BME280;5727;42.600;23.028;2023-02-12T01:35:53;94582.72;;;-2.25;84.03
11345;BME280;5727;42.600;23.028;2023-02-12T01:38:20;94590.72;;;-2.22;84.16
11345;BME280;5727;42.600;23.028;2023-02-12T01:40:46;94593.63;;;-2.18;83.99
11345;BME280;5727;42.600;23.028;2023-02-12T01:43:13;94592.63;;;-2.17;83.74
11345;BME280;5727;42.600;23.028;2023-02-12T01:45:50;94590.06;;;-2.17;84.30
11345;BME280;5727;42.600;23.028;2023-02-12T01:48:20;94581.34;;;-2.28;84.08
11345;BME280;5727;42.600;23.028;2023-02-12T01:50:50;94572.66;;;-2.27;85.27
11345;BME280;5727;42.600;23.028;2023-02-12T01:53:21;94574.78;;;-2.35;84.73
11345;BME280;5727;42.600;23.028;2023-02-12T01:55:52;94568.22;;;-2.43;85.32
11345;BME280;5727;42.600;23.028;2023-02-12T01:58:21;94565.75;;;-2.49;86.00
11345;BME280;5727;42.600;23.028;2023-02-12T02:00:49;94562.63;;;-2.51;85.92
11345;BME280;5727;42.600;23.028;2023-02-12T02:03:16;94573.34;;;-2.54;86.48
11345;BME280;5727;42.600;23.028;2023-02-12T02:05:46;94562.84;;;-2.64;86.40
11345;BME280;5727;42.600;23.028;2023-02-12T02:08:15;94562.75;;;-2.69;86.79
11345;BME280;5727;42.600;23.028;2023-02-12T02:10:43;94569.19;;;-2.67;86.61
11345;BME280;5727;42.600;23.028;2023-02-12T02:13:10;94570.13;;;-2.61;86.72
11345;BME280;5727;42.600;23.028;2023-02-12T02:15:59;94562.75;;;-2.58;86.83
11345;BME280;5727;42.600;23.028;2023-02-12T02:18:31;94563.19;;;-2.49;86.16
11345;BME280;5727;42.600;23.028;2023-02-12T02:21:24;94563.31;;;-2.44;86.71
11345;BME280;5727;42.600;23.028;2023-02-12T02:24:20;94563.31;;;-2.44;86.43
11345;BME280;5727;42.600;23.028;2023-02-12T02:27:23;94560.75;;;-2.44;86.34
11345;BME280;5727;42.600;23.028;2023-02-12T02:30:20;94551.38;;;-2.39;86.81
11345;BME280;5727;42.600;23.028;2023-02-12T02:32:58;94558.59;;;-2.36;87.15
11345;BME280;5727;42.600;23.028;2023-02-12T02:35:36;94556.59;;;-2.34;86.03
11345;BME280;5727;42.600;23.028;2023-02-12T02:38:16;94554.03;;;-2.34;86.52
11345;BME280;5727;42.600;23.028;2023-02-12T02:40:50;94552.34;;;-2.40;87.42
11345;BME280;5727;42.600;23.028;2023-02-12T02:43:22;94560.19;;;-2.35;86.02
11345;BME280;5727;42.600;23.028;2023-02-12T02:45:58;94557.72;;;-2.30;84.72
11345;BME280;5727;42.600;23.028;2023-02-12T02:48:31;94566.97;;;-2.29;84.45
11345;BME280;5727;42.600;23.028;2023-02-12T02:51:04;94562.41;;;-2.27;85.68
11345;BME280;5727;42.600;23.028;2023-02-12T02:53:34;94557.13;;;-2.20;86.52
11345;BME280;5727;42.600;23.028;2023-02-12T02:56:06;94559.03;;;-2.16;86.30
11345;BME280;5727;42.600;23.028;2023-02-12T02:58:36;94558.59;;;-2.24;85.25
11345;BME280;5727;42.600;23.028;2023-02-12T03:01:08;94555.13;;;-2.18;85.87
11345;BME280;5727;42.600;23.028;2023-02-12T03:03:40;94554.22;;;-2.12;85.91
11345;BME280;5727;42.600;23.028;2023-02-12T03:06:11;94567.94;;;-2.07;85.31
11345;BME280;5727;42.600;23.028;2023-02-12T03:08:41;94565.03;;;-2.10;84.91
11345;BME280;5727;42.600;23.028;2023-02-12T03:11:15;94558.00;;;-2.03;84.96
11345;BME280;5727;42.600;23.028;2023-02-12T03:13:46;94555.38;;;-1.92;84.57
11345;BME280;5727;42.600;23.028;2023-02-12T03:16:19;94556.63;;;-1.82;84.40
11345;BME280;5727;42.600;23.028;2023-02-12T03:18:50;94551.09;;;-1.74;83.47
11345;BME280;5727;42.600;23.028;2023-02-12T03:21:23;94547.84;;;-1.70;84.71
11345;BME280;5727;42.600;23.028;2023-02-12T03:23:58;94546.06;;;-1.69;83.80
11345;BME280;5727;42.600;23.028;2023-02-12T03:26:33;94551.25;;;-1.81;82.33
11345;BME280;5727;42.600;23.028;2023-02-12T03:29:03;94552.44;;;-1.72;82.67
11345;BME280;5727;42.600;23.028;2023-02-12T03:31:37;94556.09;;;-1.68;82.15
11345;BME280;5727;42.600;23.028;2023-02-12T03:34:10;94548.72;;;-1.64;81.90
11345;BME280;5727;42.600;23.028;2023-02-12T03:36:43;94536.91;;;-1.65;82.32
11345;BME280;5727;42.600;23.028;2023-02-12T03:39:18;94533.38;;;-1.59;82.77
11345;BME280;5727;42.600;23.028;2023-02-12T03:41:49;94537.25;;;-1.73;82.04
11345;BME280;5727;42.600;23.028;2023-02-12T03:44:28;94530.84;;;-1.71;82.06
11345;BME280;5727;42.600;23.028;2023-02-12T03:47:07;94525.50;;;-1.69;82.47
11345;BME280;5727;42.600;23.028;2023-02-12T03:49:45;94532.06;;;-1.62;81.56
11345;BME280;5727;42.600;23.028;2023-02-12T03:52:13;94534.75;;;-1.68;82.13
11345;BME280;5727;42.600;23.028;2023-02-12T03:54:40;94536.41;;;-1.62;82.94
11345;BME280;5727;42.600;23.028;2023-02-12T03:57:08;94530.72;;;-1.64;83.03
11345;BME280;5727;42.600;23.028;2023-02-12T03:59:37;94542.84;;;-1.48;83.47
11345;BME280;5727;42.600;23.028;2023-02-12T04:02:06;94530.63;;;-1.41;82.86
11345;BME280;5727;42.600;23.028;2023-02-12T04:04:33;94530.63;;;-1.41;82.81
11345;BME280;5727;42.600;23.028;2023-02-12T04:07:00;94532.81;;;-1.33;82.57
11345;BME280;5727;42.600;23.028;2023-02-12T04:09:28;94529.09;;;-1.42;83.24
11345;BME280;5727;42.600;23.028;2023-02-12T04:12:06;94514.03;;;-1.50;83.43
11345;BME280;5727;42.600;23.028;2023-02-12T04:14:40;94513.50;;;-1.36;83.41
11345;BME280;5727;42.600;23.028;2023-02-12T04:17:19;94527.75;;;-1.28;83.26
11345;BME280;5727;42.600;23.028;2023-02-12T04:19:56;94535.94;;;-1.31;83.66
11345;BME280;5727;42.600;23.028;2023-02-12T04:22:35;94529.78;;;-1.30;84.07
11345;BME280;5727;42.600;23.028;2023-02-12T04:25:15;94526.22;;;-1.29;84.07
11345;BME280;5727;42.600;23.028;2023-02-12T04:27:51;94534.31;;;-1.21;84.17
11345;BME280;5727;42.600;23.028;2023-02-12T04:30:23;94539.00;;;-1.18;83.46
11345;BME280;5727;42.600;23.028;2023-02-12T04:32:58;94541.41;;;-1.11;82.79
11345;BME280;5727;42.600;23.028;2023-02-12T04:35:29;94538.94;;;-1.06;81.92
11345;BME280;5727;42.600;23.028;2023-02-12T04:38:02;94539.94;;;-1.07;81.66
11345;BME280;5727;42.600;23.028;2023-02-12T04:40:33;94545.78;;;-1.12;81.09
11345;BME280;5727;42.600;23.028;2023-02-12T04:43:00;94547.19;;;-1.04;82.23
11345;BME280;5727;42.600;23.028;2023-02-12T04:45:30;94541.63;;;-0.96;82.54
11345;BME280;5727;42.600;23.028;2023-02-12T04:47:59;94556.13;;;-0.90;81.91
11345;BME280;5727;42.600;23.028;2023-02-12T04:50:27;94553.66;;;-0.85;82.00
11345;BME280;5727;42.600;23.028;2023-02-12T04:53:02;94563.09;;;-0.74;81.39
11345;BME280;5727;42.600;23.028;2023-02-12T04:55:29;94556.47;;;-0.70;80.33
11345;BME280;5727;42.600;23.028;2023-02-12T04:57:56;94563.50;;;-0.65;80.80
11345;BME280;5727;42.600;23.028;2023-02-12T05:00:23;94563.78;;;-0.62;80.30
11345;BME280;5727;42.600;23.028;2023-02-12T05:02:50;94567.13;;;-0.61;80.90
11345;BME280;5727;42.600;23.028;2023-02-12T05:05:18;94562.47;;;-0.64;81.53
11345;BME280;5727;42.600;23.028;2023-02-12T05:07:44;94561.53;;;-0.58;81.07
11345;BME280;5727;42.600;23.028;2023-02-12T05:10:11;94562.16;;;-0.68;81.39
11345;BME280;5727;42.600;23.028;2023-02-12T05:12:38;94573.59;;;-0.59;80.99
11345;BME280;5727;42.600;23.028;2023-02-12T05:15:05;94573.59;;;-0.59;81.35
11345;BME280;5727;42.600;23.028;2023-02-12T05:17:32;94577.50;;;-0.73;82.98
11345;BME280;5727;42.600;23.028;2023-02-12T05:19:59;94574.72;;;-0.71;83.43
11345;BME280;5727;42.600;23.028;2023-02-12T05:22:27;94574.28;;;-0.63;82.80
11345;BME280;5727;42.600;23.028;2023-02-12T05:24:53;94575.56;;;-0.66;83.02
11345;BME280;5727;42.600;23.028;2023-02-12T05:27:20;94578.38;;;-0.67;83.44
11345;BME280;5727;42.600;23.028;2023-02-12T05:29:47;94581.88;;;-0.57;83.01
11345;BME280;5727;42.600;23.028;2023-02-12T05:32:13;94583.84;;;-0.64;82.50
11345;BME280;5727;42.600;23.028;2023-02-12T05:34:40;94577.19;;;-0.60;83.00
11345;BME280;5727;42.600;23.028;2023-02-12T05:37:07;94588.97;;;-0.64;81.38
11345;BME280;5727;42.600;23.028;2023-02-12T05:39:35;94590.63;;;-0.58;81.47
11345;BME280;5727;42.600;23.028;2023-02-12T05:42:01;94595.03;;;-0.53;82.01
11345;BME280;5727;42.600;23.028;2023-02-12T05:44:28;94601.03;;;-0.48;82.16
11345;BME280;5727;42.600;23.028;2023-02-12T05:46:55;94603.84;;;-0.49;82.28
11345;BME280;5727;42.600;23.028;2023-02-12T05:49:22;94604.09;;;-0.51;82.94
11345;BME280;5727;42.600;23.028;2023-02-12T05:51:48;94597.06;;;-0.39;82.85
11345;BME280;5727;42.600;23.028;2023-02-12T05:54:15;94612.09;;;-0.31;82.63
11345;BME280;5727;42.600;23.028;2023-02-12T05:56:45;94599.38;;;-0.21;81.17
11345;BME280;5727;42.600;23.028;2023-02-12T05:59:14;94612.34;;;-0.32;83.26
11345;BME280;5727;42.600;23.028;2023-02-12T06:01:42;94607.22;;;-0.49;82.97
11345;BME280;5727;42.600;23.028;2023-02-12T06:04:12;94605.56;;;-0.38;83.21
11345;BME280;5727;42.600;23.028;2023-02-12T06:06:39;94600.59;;;-0.45;83.73
11345;BME280;5727;42.600;23.028;2023-02-12T06:09:07;94608.22;;;-0.50;84.38
11345;BME280;5727;42.600;23.028;2023-02-12T06:11:34;94605.00;;;-0.40;85.64
11345;BME280;5727;42.600;23.028;2023-02-12T06:14:03;94611.97;;;-0.41;87.02
11345;BME280;5727;42.600;23.028;2023-02-12T06:16:31;94607.19;;;-0.32;86.81
11345;BME280;5727;42.600;23.028;2023-02-12T06:19:00;94601.50;;;-0.18;86.21
11345;BME280;5727;42.600;23.028;2023-02-12T06:21:28;94609.13;;;-0.06;86.49
11345;BME280;5727;42.600;23.028;2023-02-12T06:23:55;94605.69;;;0.10;87.62
11345;BME280;5727;42.600;23.028;2023-02-12T06:26:22;94616.94;;;0.21;87.90
11345;BME280;5727;42.600;23.028;2023-02-12T06:28:49;94613.50;;;0.15;91.10
11345;BME280;5727;42.600;23.028;2023-02-12T06:31:19;94606.66;;;0.26;92.38
11345;BME280;5727;42.600;23.028;2023-02-12T06:33:46;94610.34;;;0.30;93.48
11345;BME280;5727;42.600;23.028;2023-02-12T06:36:13;94603.63;;;0.29;94.91
11345;BME280;5727;42.600;23.028;2023-02-12T06:38:40;94604.47;;;0.34;98.32
11345;BME280;5727;42.600;23.028;2023-02-12T06:41:07;94604.69;;;0.33;99.22
11345;BME280;5727;42.600;23.028;2023-02-12T06:43:34;94601.91;;;0.34;100.00
11345;BME280;5727;42.600;23.028;2023-02-12T06:46:01;94603.25;;;0.42;100.00
11345;BME280;5727;42.600;23.028;2023-02-12T06:48:30;94607.22;;;0.49;100.00
11345;BME280;5727;42.600;23.028;2023-02-12T06:51:03;94613.50;;;0.58;100.00
11345;BME280;5727;42.600;23.028;2023-02-12T06:53:30;94612.78;;;0.63;100.00
11345;BME280;5727;42.600;23.028;2023-02-12T06:55:59;94610.31;;;0.73;100.00
11345;BME280;5727;42.600;23.028;2023-02-12T06:58:26;94618.09;;;0.78;100.00
11345;BME280;5727;42.600;23.028;2023-02-12T07:00:52;94612.41;;;0.76;100.00
11345;BME280;5727;42.600;23.028;2023-02-12T07:03:19;94597.75;;;0.81;100.00
11345;BME280;5727;42.600;23.028;2023-02-12T07:05:47;94610.66;;;0.81;100.00
11345;BME280;5727;42.600;23.028;2023-02-12T07:08:14;94611.03;;;0.68;100.00
11345;BME280;5727;42.600;23.028;2023-02-12T07:10:41;94612.94;;;0.78;100.00
11345;BME280;5727;42.600;23.028;2023-02-12T07:13:08;94612.94;;;0.78;100.00
11345;BME280;5727;42.600;23.028;2023-02-12T07:15:37;94612.16;;;0.77;100.00
11345;BME280;5727;42.600;23.028;2023-02-12T07:18:04;94612.34;;;0.71;100.00
11345;BME280;5727;42.600;23.028;2023-02-12T07:20:31;94607.00;;;0.77;100.00
11345;BME280;5727;42.600;23.028;2023-02-12T07:22:59;94606.03;;;0.83;100.00
11345;BME280;5727;42.600;23.028;2023-02-12T07:25:26;94603.97;;;0.85;100.00
11345;BME280;5727;42.600;23.028;2023-02-12T07:27:53;94600.22;;;0.98;100.00
11345;BME280;5727;42.600;23.028;2023-02-12T07:30:19;94611.09;;;1.00;100.00
11345;BME280;5727;42.600;23.028;2023-02-12T07:32:46;94602.38;;;1.06;100.00
11345;BME280;5727;42.600;23.028;2023-02-12T07:35:13;94601.16;;;1.14;100.00
11345;BME280;5727;42.600;23.028;2023-02-12T07:37:40;94598.63;;;1.19;100.00
11345;BME280;5727;42.600;23.028;2023-02-12T07:40:09;94604.78;;;1.18;99.60
11345;BME280;5727;42.600;23.028;2023-02-12T07:42:36;94603.88;;;1.02;100.00
11345;BME280;5727;42.600;23.028;2023-02-12T07:45:03;94599.88;;;1.16;99.65
11345;BME280;5727;42.600;23.028;2023-02-12T07:47:30;94605.28;;;1.15;99.57
11345;BME280;5727;42.600;23.028;2023-02-12T07:49:57;94604.75;;;1.13;98.46
11345;BME280;5727;42.600;23.028;2023-02-12T07:52:24;94609.22;;;1.22;98.58
11345;BME280;5727;42.600;23.028;2023-02-12T07:54:50;94605.69;;;1.33;97.98
11345;BME280;5727;42.600;23.028;2023-02-12T07:57:18;94608.09;;;1.40;97.35
11345;BME280;5727;42.600;23.028;2023-02-12T07:59:45;94616.13;;;1.43;97.55
11345;BME280;5727;42.600;23.028;2023-02-12T08:02:13;94615.13;;;1.49;97.90
11345;BME280;5727;42.600;23.028;2023-02-12T08:04:40;94618.53;;;1.55;97.57
11345;BME280;5727;42.600;23.028;2023-02-12T08:07:06;94621.84;;;1.50;96.71
11345;BME280;5727;42.600;23.028;2023-02-12T08:09:33;94620.06;;;1.56;96.60
11345;BME280;5727;42.600;23.028;2023-02-12T08:12:00;94618.03;;;1.58;96.19
11345;BME280;5727;42.600;23.028;2023-02-12T08:14:28;94617.81;;;1.64;96.15
11345;BME280;5727;42.600;23.028;2023-02-12T08:16:55;94616.84;;;1.70;96.15
11345;BME280;5727;42.600;23.028;2023-02-12T08:19:22;94619.44;;;1.75;96.55
11345;BME280;5727;42.600;23.028;2023-02-12T08:22:01;94629.31;;;1.83;95.76
11345;BME280;5727;42.600;23.028;2023-02-12T08:24:28;94623.66;;;1.86;95.68
11345;BME280;5727;42.600;23.028;2023-02-12T08:26:56;94619.31;;;1.92;95.32
11345;BME280;5727;42.600;23.028;2023-02-12T08:29:25;94616.22;;;1.95;94.66
11345;BME280;5727;42.600;23.028;2023-02-12T08:31:57;94630.41;;;1.93;94.11
11345;BME280;5727;42.600;23.028;2023-02-12T08:34:29;94632.50;;;1.96;94.42
11345;BME280;5727;42.600;23.028;2023-02-12T08:36:57;94652.19;;;2.02;95.04
11345;BME280;5727;42.600;23.028;2023-02-12T08:39:25;94643.41;;;2.03;95.77
11345;BME280;5727;42.600;23.028;2023-02-12T08:41:53;94649.63;;;2.07;95.61
11345;BME280;5727;42.600;23.028;2023-02-12T08:44:20;94658.66;;;2.04;95.61
11345;BME280;5727;42.600;23.028;2023-02-12T08:46:48;94658.91;;;2.03;95.61
11345;BME280;5727;42.600;23.028;2023-02-12T08:49:18;94656.88;;;2.10;95.80
11345;BME280;5727;42.600;23.028;2023-02-12T08:51:46;94662.81;;;2.10;94.86
11345;BME280;5727;42.600;23.028;2023-02-12T08:54:15;94663.63;;;2.16;94.95
11345;BME280;5727;42.600;23.028;2023-02-12T08:56:42;94661.03;;;2.16;94.42
11345;BME280;5727;42.600;23.028;2023-02-12T08:59:11;94669.88;;;2.20;93.85
11345;BME280;5727;42.600;23.028;2023-02-12T09:01:39;94672.72;;;2.23;93.91
11345;BME280;5727;42.600;23.028;2023-02-12T09:04:06;94679.75;;;2.28;93.64
11345;BME280;5727;42.600;23.028;2023-02-12T09:06:35;94670.72;;;2.30;93.13
11345;BME280;5727;42.600;23.028;2023-02-12T09:09:02;94681.31;;;2.34;93.55
11345;BME280;5727;42.600;23.028;2023-02-12T09:11:29;94688.09;;;2.40;93.76
11345;BME280;5727;42.600;23.028;2023-02-12T09:13:56;94679.84;;;2.48;93.51
11345;BME280;5727;42.600;23.028;2023-02-12T09:16:24;94678.03;;;2.43;93.17
11345;BME280;5727;42.600;23.028;2023-02-12T09:18:51;94683.72;;;2.45;92.84
11345;BME280;5727;42.600;23.028;2023-02-12T09:21:19;94684.78;;;2.49;92.93
11345;BME280;5727;42.600;23.028;2023-02-12T09:23:48;94689.97;;;2.54;93.21
11345;BME280;5727;42.600;23.028;2023-02-12T09:26:17;94688.19;;;2.60;92.67
11345;BME280;5727;42.600;23.028;2023-02-12T09:28:45;94691.34;;;2.67;92.26
11345;BME280;5727;42.600;23.028;2023-02-12T09:31:15;94690.50;;;2.56;92.33
11345;BME280;5727;42.600;23.028;2023-02-12T09:33:42;94690.75;;;2.60;92.99
11345;BME280;5727;42.600;23.028;2023-02-12T09:36:11;94690.81;;;2.65;93.41
11345;BME280;5727;42.600;23.028;2023-02-12T09:38:38;94701.69;;;2.72;93.17
11345;BME280;5727;42.600;23.028;2023-02-12T09:41:21;94701.97;;;2.75;92.23
11345;BME280;5727;42.600;23.028;2023-02-12T09:43:55;94714.84;;;2.65;92.64
11345;BME280;5727;42.600;23.028;2023-02-12T09:46:29;94695.47;;;2.68;92.22
11345;BME280;5727;42.600;23.028;2023-02-12T09:49:04;94700.44;;;2.79;91.56
11345;BME280;5727;42.600;23.028;2023-02-12T09:51:34;94704.06;;;2.84;91.19
11345;BME280;5727;42.600;23.028;2023-02-12T09:54:04;94706.44;;;2.95;91.47
11345;BME280;5727;42.600;23.028;2023-02-12T09:56:36;94712.69;;;2.99;91.42
11345;BME280;5727;42.600;23.028;2023-02-12T09:59:05;94709.56;;;3.02;91.30
11345;BME280;5727;42.600;23.028;2023-02-12T10:01:33;94706.97;;;3.02;90.75
11345;BME280;5727;42.600;23.028;2023-02-12T10:04:00;94698.94;;;2.94;91.09
11345;BME280;5727;42.600;23.028;2023-02-12T10:06:29;94701.22;;;2.85;91.95
11345;BME280;5727;42.600;23.028;2023-02-12T10:09:02;94704.06;;;2.84;92.64
11345;BME280;5727;42.600;23.028;2023-02-12T10:11:50;94702.81;;;2.91;92.11
11345;BME280;5727;42.600;23.028;2023-02-12T10:17:36;94702.22;;;2.79;94.20
11345;BME280;5727;42.600;23.028;2023-02-12T10:20:25;94702.69;;;2.66;95.37
11345;BME280;5727;42.600;23.028;2023-02-12T10:23:05;94701.38;;;2.63;96.03
11345;BME280;5727;42.600;23.028;2023-02-12T10:25:43;94692.34;;;2.61;95.90
11345;BME280;5727;42.600;23.028;2023-02-12T10:28:16;94695.72;;;2.66;96.77
11345;BME280;5727;42.600;23.028;2023-02-12T10:30:50;94692.16;;;2.83;97.35
11345;BME280;5727;42.600;23.028;2023-02-12T10:33:20;94686.66;;;2.69;96.58
11345;BME280;5727;42.600;23.028;2023-02-12T10:35:54;94695.25;;;2.79;97.74
11345;BME280;5727;42.600;23.028;2023-02-12T10:38:27;94692.72;;;2.90;97.48
11345;BME280;5727;42.600;23.028;2023-02-12T10:40:55;94697.16;;;2.99;97.44
11345;BME280;5727;42.600;23.028;2023-02-12T10:43:27;94689.38;;;3.04;96.78
11345;BME280;5727;42.600;23.028;2023-02-12T10:45:54;94693.56;;;3.05;97.50
11345;BME280;5727;42.600;23.028;2023-02-12T10:48:23;94692.53;;;3.16;96.87
11345;BME280;5727;42.600;23.028;2023-02-12T10:50:59;94694.13;;;3.32;96.55
11345;BME280;5727;42.600;23.028;2023-02-12T10:53:32;94697.16;;;2.99;97.71
11345;BME280;5727;42.600;23.028;2023-02-12T10:56:14;94687.81;;;2.88;98.22
11345;BME280;5727;42.600;23.028;2023-02-12T10:58:52;94685.53;;;3.07;98.59
11345;BME280;5727;42.600;23.028;2023-02-12T11:01:24;94680.16;;;3.28;98.19
11345;BME280;5727;42.600;23.028;2023-02-12T11:03:52;94679.66;;;3.51;97.21
11345;BME280;5727;42.600;23.028;2023-02-12T11:06:21;94683.81;;;3.67;97.04
11345;BME280;5727;42.600;23.028;2023-02-12T11:08:49;94689.53;;;3.90;96.10
11345;BME280;5727;42.600;23.028;2023-02-12T11:11:19;94695.72;;;4.14;94.30
11345;BME280;5727;42.600;23.028;2023-02-12T11:13:55;94690.78;;;4.17;94.52
11345;BME280;5727;42.600;23.028;2023-02-12T11:16:30;94689.75;;;4.28;94.06
11345;BME280;5727;42.600;23.028;2023-02-12T11:19:00;94692.09;;;4.05;94.13
11345;BME280;5727;42.600;23.028;2023-02-12T11:21:27;94701.44;;;3.86;94.96
11345;BME280;5727;42.600;23.028;2023-02-12T11:23:53;94693.13;;;3.63;95.41
11345;BME280;5727;42.600;23.028;2023-02-12T11:26:25;94686.94;;;3.64;96.05
11345;BME280;5727;42.600;23.028;2023-02-12T11:28:56;94689.44;;;3.34;96.47
11345;BME280;5727;42.600;23.028;2023-02-12T11:31:24;94694.59;;;3.19;97.52
11345;BME280;5727;42.600;23.028;2023-02-12T11:34:14;94697.22;;;3.29;97.38
11345;BME280;5727;42.600;23.028;2023-02-12T11:36:43;94695.94;;;3.32;97.79
11345;BME280;5727;42.600;23.028;2023-02-12T11:39:18;94689.22;;;3.41;97.94
11345;BME280;5727;42.600;23.028;2023-02-12T11:41:50;94689.50;;;3.59;97.73
11345;BME280;5727;42.600;23.028;2023-02-12T11:44:21;94684.34;;;3.64;97.42
11345;BME280;5727;42.600;23.028;2023-02-12T11:46:52;94688.75;;;3.74;96.00
11345;BME280;5727;42.600;23.028;2023-02-12T11:49:22;94681.75;;;3.80;95.67
11345;BME280;5727;42.600;23.028;2023-02-12T11:51:49;94692.09;;;3.80;94.98
11345;BME280;5727;42.600;23.028;2023-02-12T11:54:18;94693.13;;;3.73;94.48
11345;BME280;5727;42.600;23.028;2023-02-12T11:56:46;94692.38;;;3.68;94.46
11345;BME280;5727;42.600;23.028;2023-02-12T11:59:32;94691.31;;;3.64;94.85
11345;BME280;5727;42.600;23.028;2023-02-12T12:02:04;94688.47;;;3.81;94.07
11345;BME280;5727;42.600;23.028;2023-02-12T12:04:32;94692.63;;;3.92;93.81
11345;BME280;5727;42.600;23.028;2023-02-12T12:07:06;94691.59;;;4.03;91.13
11345;BME280;5727;42.600;23.028;2023-02-12T12:09:39;94702.75;;;4.03;89.92
11345;BME280;5727;42.600;23.028;2023-02-12T12:12:14;94697.03;;;3.86;90.30
11345;BME280;5727;42.600;23.028;2023-02-12T12:14:47;94694.69;;;3.69;91.51
11345;BME280;5727;42.600;23.028;2023-02-12T12:17:37;94718.00;;;3.69;92.44
11345;BME280;5727;42.600;23.028;2023-02-12T12:20:28;94713.59;;;3.65;93.22
11345;BME280;5727;42.600;23.028;2023-02-12T12:22:59;94699.38;;;3.78;93.38
11345;BME280;5727;42.600;23.028;2023-02-12T12:25:30;94708.97;;;3.82;91.83
11345;BME280;5727;42.600;23.028;2023-02-12T12:28:05;94709.72;;;3.78;91.52
11345;BME280;5727;42.600;23.028;2023-02-12T12:30:49;94719.59;;;3.70;91.64
11345;BME280;5727;42.600;23.028;2023-02-12T12:33:23;94718.28;;;3.63;92.92
11345;BME280;5727;42.600;23.028;2023-02-12T12:36:02;94719.06;;;3.68;92.80
11345;BME280;5727;42.600;23.028;2023-02-12T12:38:41;94723.69;;;3.61;94.04
11345;BME280;5727;42.600;23.028;2023-02-12T12:41:18;94724.50;;;3.57;93.59
11345;BME280;5727;42.600;23.028;2023-02-12T12:43:54;94722.94;;;3.71;94.34
11345;BME280;5727;42.600;23.028;2023-02-12T12:46:36;94721.16;;;3.92;93.23
11345;BME280;5727;42.600;23.028;2023-02-12T12:49:33;94720.63;;;4.20;92.60
11345;BME280;5727;42.600;23.028;2023-02-12T12:52:19;94720.88;;;4.28;90.67
11345;BME280;5727;42.600;23.028;2023-02-12T12:55:03;94723.72;;;4.32;90.39
11345;BME280;5727;42.600;23.028;2023-02-12T12:57:41;94726.28;;;4.42;90.82
11345;BME280;5727;42.600;23.028;2023-02-12T13:00:24;94730.19;;;4.39;89.13
11345;BME280;5727;42.600;23.028;2023-02-12T13:06:22;94728.13;;;4.36;89.87
11345;BME280;5727;42.600;23.028;2023-02-12T13:09:13;94729.69;;;4.27;90.11
11345;BME280;5727;42.600;23.028;2023-02-12T13:11:54;94734.06;;;4.42;89.46
11345;BME280;5727;42.600;23.028;2023-02-12T13:14:32;94740.31;;;4.31;89.94
11345;BME280;5727;42.600;23.028;2023-02-12T13:17:08;94741.88;;;4.12;91.71
11345;BME280;5727;42.600;23.028;2023-02-12T13:19:44;94740.31;;;3.81;92.30
11345;BME280;5727;42.600;23.028;2023-02-12T13:22:20;94745.50;;;3.81;92.68
11345;BME280;5727;42.600;23.028;2023-02-12T13:24:52;94741.34;;;3.64;93.25
11345;BME280;5727;42.600;23.028;2023-02-12T13:27:24;94753.28;;;3.76;93.25
11345;BME280;5727;42.600;23.028;2023-02-12T13:29:52;94752.22;;;3.66;93.73